sensor_id;sensor_type;location;lat;lon;timestamp;P1;durP1;ratioP1;P2;durP2;ratioP2
68168;SDS011;54981;50.206;15.978;2023-05-29T00:00:01;10.40;;;9.50;;
68168;SDS011;54981;50.206;15.978;2023-05-29T00:02:35;10.02;;;9.02;;
68168;SDS011;54981;50.206;15.978;2023-05-29T00:05:06;11.10;;;10.10;;
68168;SDS011;54981;50.206;15.978;2023-05-29T00:07:36;10.93;;;9.95;;
68168;SDS011;54981;50.206;15.978;2023-05-29T00:10:07;11.35;;;10.45;;
68168;SDS011;54981;50.206;15.978;2023-05-29T00:12:39;11.57;;;10.32;;
68168;SDS011;54981;50.206;15.978;2023-05-29T00:15:09;10.30;;;9.40;;
68168;SDS011;54981;50.206;15.978;2023-05-29T00:17:40;10.90;;;10.00;;
68168;SDS011;54981;50.206;15.978;2023-05-29T00:20:13;10.77;;;9.88;;
68168;SDS011;54981;50.206;15.978;2023-05-29T00:22:43;10.55;;;9.73;;
68168;SDS011;54981;50.206;15.978;2023-05-29T00:25:14;10.65;;;9.75;;
68168;SDS011;54981;50.206;15.978;2023-05-29T00:27:45;10.15;;;9.35;;
68168;SDS011;54981;50.206;15.978;2023-05-29T00:30:15;11.50;;;10.40;;
68168;SDS011;54981;50.206;15.978;2023-05-29T00:32:45;9.65;;;8.70;;
68168;SDS011;54981;50.206;15.978;2023-05-29T00:35:16;10.43;;;9.55;;
68168;SDS011;54981;50.206;15.978;2023-05-29T00:37:46;12.23;;;10.98;;
68168;SDS011;54981;50.206;15.978;2023-05-29T00:40:17;11.65;;;10.55;;
68168;SDS011;54981;50.206;15.978;2023-05-29T00:42:47;10.10;;;9.10;;
68168;SDS011;54981;50.206;15.978;2023-05-29T00:45:17;10.25;;;9.35;;
68168;SDS011;54981;50.206;15.978;2023-05-29T00:47:48;11.32;;;10.35;;
68168;SDS011;54981;50.206;15.978;2023-05-29T00:50:20;11.30;;;10.30;;
68168;SDS011;54981;50.206;15.978;2023-05-29T00:52:51;11.10;;;10.30;;
68168;SDS011;54981;50.206;15.978;2023-05-29T00:55:23;11.77;;;10.70;;
68168;SDS011;54981;50.206;15.978;2023-05-29T00:57:55;13.48;;;12.27;;
68168;SDS011;54981;50.206;15.978;2023-05-29T01:00:25;12.32;;;11.23;;
68168;SDS011;54981;50.206;15.978;2023-05-29T01:02:56;10.55;;;9.73;;
68168;SDS011;54981;50.206;15.978;2023-05-29T01:05:28;11.75;;;10.00;;
68168;SDS011;54981;50.206;15.978;2023-05-29T01:07:58;12.10;;;11.07;;
68168;SDS011;54981;50.206;15.978;2023-05-29T01:10:29;10.35;;;9.45;;
68168;SDS011;54981;50.206;15.978;2023-05-29T01:13:15;11.45;;;10.35;;
68168;SDS011;54981;50.206;15.978;2023-05-29T01:15:52;11.20;;;10.20;;
68168;SDS011;54981;50.206;15.978;2023-05-29T01:18:38;10.57;;;9.70;;
68168;SDS011;54981;50.206;15.978;2023-05-29T01:24:02;11.43;;;10.43;;
68168;SDS011;54981;50.206;15.978;2023-05-29T01:29:22;11.68;;;10.70;;
68168;SDS011;54981;50.206;15.978;2023-05-29T01:31:54;12.17;;;11.17;;
68168;SDS011;54981;50.206;15.978;2023-05-29T01:34:26;12.15;;;11.00;;
68168;SDS011;54981;50.206;15.978;2023-05-29T01:36:56;11.70;;;10.77;;
68168;SDS011;54981;50.206;15.978;2023-05-29T01:39:27;11.30;;;10.30;;
68168;SDS011;54981;50.206;15.978;2023-05-29T01:41:58;11.88;;;10.98;;
68168;SDS011;54981;50.206;15.978;2023-05-29T01:44:30;12.57;;;11.57;;
68168;SDS011;54981;50.206;15.978;2023-05-29T01:47:01;12.98;;;11.77;;
68168;SDS011;54981;50.206;15.978;2023-05-29T01:49:32;11.93;;;10.93;;
68168;SDS011;54981;50.206;15.978;2023-05-29T01:52:03;12.20;;;11.07;;
68168;SDS011;54981;50.206;15.978;2023-05-29T01:54:34;10.98;;;9.93;;
68168;SDS011;54981;50.206;15.978;2023-05-29T01:57:04;10.98;;;10.10;;
68168;SDS011;54981;50.206;15.978;2023-05-29T01:59:36;10.75;;;9.90;;
68168;SDS011;54981;50.206;15.978;2023-05-29T02:02:07;10.90;;;9.93;;
68168;SDS011;54981;50.206;15.978;2023-05-29T02:04:38;12.05;;;10.95;;
68168;SDS011;54981;50.206;15.978;2023-05-29T02:07:08;12.18;;;11.27;;
68168;SDS011;54981;50.206;15.978;2023-05-29T02:09:39;13.00;;;11.80;;
68168;SDS011;54981;50.206;15.978;2023-05-29T02:12:09;12.68;;;11.63;;
68168;SDS011;54981;50.206;15.978;2023-05-29T02:14:40;11.48;;;10.52;;
68168;SDS011;54981;50.206;15.978;2023-05-29T02:17:10;11.32;;;10.35;;
68168;SDS011;54981;50.206;15.978;2023-05-29T02:19:41;12.15;;;11.25;;
68168;SDS011;54981;50.206;15.978;2023-05-29T02:22:11;11.15;;;10.18;;
68168;SDS011;54981;50.206;15.978;2023-05-29T02:24:42;12.05;;;11.05;;
68168;SDS011;54981;50.206;15.978;2023-05-29T02:27:12;10.05;;;9.18;;
68168;SDS011;54981;50.206;15.978;2023-05-29T02:29:43;11.43;;;10.43;;
68168;SDS011;54981;50.206;15.978;2023-05-29T02:32:13;13.50;;;10.80;;
68168;SDS011;54981;50.206;15.978;2023-05-29T02:34:44;12.05;;;11.05;;
68168;SDS011;54981;50.206;15.978;2023-05-29T02:37:15;12.90;;;11.52;;
68168;SDS011;54981;50.206;15.978;2023-05-29T02:39:46;11.68;;;10.68;;
68168;SDS011;54981;50.206;15.978;2023-05-29T02:42:17;11.60;;;10.57;;
68168;SDS011;54981;50.206;15.978;2023-05-29T02:44:47;13.25;;;11.00;;
68168;SDS011;54981;50.206;15.978;2023-05-29T02:47:17;12.40;;;11.30;;
68168;SDS011;54981;50.206;15.978;2023-05-29T02:49:48;12.60;;;11.60;;
68168;SDS011;54981;50.206;15.978;2023-05-29T02:52:18;12.90;;;11.80;;
68168;SDS011;54981;50.206;15.978;2023-05-29T02:54:49;11.18;;;10.27;;
68168;SDS011;54981;50.206;15.978;2023-05-29T02:57:20;10.82;;;9.98;;
68168;SDS011;54981;50.206;15.978;2023-05-29T02:59:50;13.70;;;12.57;;
68168;SDS011;54981;50.206;15.978;2023-05-29T03:02:21;11.68;;;10.82;;
68168;SDS011;54981;50.206;15.978;2023-05-29T03:04:52;11.35;;;10.32;;
68168;SDS011;54981;50.206;15.978;2023-05-29T03:07:23;12.40;;;11.40;;
68168;SDS011;54981;50.206;15.978;2023-05-29T03:09:54;12.40;;;11.20;;
68168;SDS011;54981;50.206;15.978;2023-05-29T03:12:25;12.65;;;11.65;;
68168;SDS011;54981;50.206;15.978;2023-05-29T03:14:57;11.43;;;10.48;;
68168;SDS011;54981;50.206;15.978;2023-05-29T03:17:28;12.10;;;11.10;;
68168;SDS011;54981;50.206;15.978;2023-05-29T03:19:59;12.90;;;11.90;;
68168;SDS011;54981;50.206;15.978;2023-05-29T03:22:30;12.38;;;11.48;;
68168;SDS011;54981;50.206;15.978;2023-05-29T03:25:01;12.38;;;11.27;;
68168;SDS011;54981;50.206;15.978;2023-05-29T03:27:35;12.77;;;11.68;;
68168;SDS011;54981;50.206;15.978;2023-05-29T03:30:05;13.68;;;12.48;;
68168;SDS011;54981;50.206;15.978;2023-05-29T03:32:36;12.35;;;11.45;;
68168;SDS011;54981;50.206;15.978;2023-05-29T03:35:07;11.23;;;10.43;;
68168;SDS011;54981;50.206;15.978;2023-05-29T03:37:37;11.45;;;10.52;;
68168;SDS011;54981;50.206;15.978;2023-05-29T03:40:08;13.90;;;12.75;;
68168;SDS011;54981;50.206;15.978;2023-05-29T03:42:39;12.75;;;11.73;;
68168;SDS011;54981;50.206;15.978;2023-05-29T03:45:09;13.00;;;12.00;;
68168;SDS011;54981;50.206;15.978;2023-05-29T03:47:40;13.38;;;12.18;;
68168;SDS011;54981;50.206;15.978;2023-05-29T03:50:10;12.85;;;11.70;;
68168;SDS011;54981;50.206;15.978;2023-05-29T03:52:44;14.27;;;12.98;;
68168;SDS011;54981;50.206;15.978;2023-05-29T03:55:15;13.02;;;11.90;;
68168;SDS011;54981;50.206;15.978;2023-05-29T03:57:45;13.55;;;12.25;;
68168;SDS011;54981;50.206;15.978;2023-05-29T04:00:15;14.18;;;13.00;;
68168;SDS011;54981;50.206;15.978;2023-05-29T04:02:46;12.25;;;11.20;;
68168;SDS011;54981;50.206;15.978;2023-05-29T04:05:17;12.52;;;11.18;;
68168;SDS011;54981;50.206;15.978;2023-05-29T04:07:47;13.18;;;11.98;;
68168;SDS011;54981;50.206;15.978;2023-05-29T04:10:17;13.27;;;11.95;;
68168;SDS011;54981;50.206;15.978;2023-05-29T04:12:48;13.35;;;11.65;;
68168;SDS011;54981;50.206;15.978;2023-05-29T04:15:18;13.35;;;11.98;;
68168;SDS011;54981;50.206;15.978;2023-05-29T04:17:48;13.55;;;12.30;;
68168;SDS011;54981;50.206;15.978;2023-05-29T04:20:19;14.18;;;12.73;;
68168;SDS011;54981;50.206;15.978;2023-05-29T04:22:50;13.13;;;12.02;;
68168;SDS011;54981;50.206;15.978;2023-05-29T04:25:21;13.35;;;11.93;;
68168;SDS011;54981;50.206;15.978;2023-05-29T04:27:52;14.30;;;12.93;;
68168;SDS011;54981;50.206;15.978;2023-05-29T04:30:22;13.77;;;12.40;;
68168;SDS011;54981;50.206;15.978;2023-05-29T04:32:53;15.13;;;13.02;;
68168;SDS011;54981;50.206;15.978;2023-05-29T04:35:23;16.08;;;12.30;;
68168;SDS011;54981;50.206;15.978;2023-05-29T04:37:54;14.57;;;13.18;;
68168;SDS011;54981;50.206;15.978;2023-05-29T04:40:26;13.63;;;12.40;;
68168;SDS011;54981;50.206;15.978;2023-05-29T04:42:56;13.52;;;12.13;;
68168;SDS011;54981;50.206;15.978;2023-05-29T04:45:30;14.05;;;12.85;;
68168;SDS011;54981;50.206;15.978;2023-05-29T04:48:01;13.10;;;11.90;;
68168;SDS011;54981;50.206;15.978;2023-05-29T04:50:31;13.18;;;12.00;;
68168;SDS011;54981;50.206;15.978;2023-05-29T04:53:02;12.25;;;11.15;;
68168;SDS011;54981;50.206;15.978;2023-05-29T04:55:32;13.68;;;12.57;;
68168;SDS011;54981;50.206;15.978;2023-05-29T04:58:03;12.05;;;10.98;;
68168;SDS011;54981;50.206;15.978;2023-05-29T05:00:33;13.27;;;12.07;;
68168;SDS011;54981;50.206;15.978;2023-05-29T05:03:03;13.73;;;12.32;;
68168;SDS011;54981;50.206;15.978;2023-05-29T05:05:34;13.40;;;11.65;;
68168;SDS011;54981;50.206;15.978;2023-05-29T05:08:04;12.80;;;11.60;;
68168;SDS011;54981;50.206;15.978;2023-05-29T05:10:35;13.07;;;11.77;;
68168;SDS011;54981;50.206;15.978;2023-05-29T05:13:05;12.25;;;11.07;;
68168;SDS011;54981;50.206;15.978;2023-05-29T05:15:37;11.95;;;10.23;;
68168;SDS011;54981;50.206;15.978;2023-05-29T05:18:07;11.68;;;10.52;;
68168;SDS011;54981;50.206;15.978;2023-05-29T05:20:38;12.18;;;10.20;;
68168;SDS011;54981;50.206;15.978;2023-05-29T05:23:08;12.15;;;10.27;;
68168;SDS011;54981;50.206;15.978;2023-05-29T05:25:40;11.77;;;10.68;;
68168;SDS011;54981;50.206;15.978;2023-05-29T05:28:11;10.48;;;9.38;;
68168;SDS011;54981;50.206;15.978;2023-05-29T05:30:41;11.38;;;10.13;;
68168;SDS011;54981;50.206;15.978;2023-05-29T05:33:11;12.32;;;9.82;;
68168;SDS011;54981;50.206;15.978;2023-05-29T05:35:42;11.07;;;9.30;;
68168;SDS011;54981;50.206;15.978;2023-05-29T05:38:12;10.73;;;9.07;;
68168;SDS011;54981;50.206;15.978;2023-05-29T05:40:43;14.35;;;9.15;;
68168;SDS011;54981;50.206;15.978;2023-05-29T05:43:14;10.50;;;9.43;;
68168;SDS011;54981;50.206;15.978;2023-05-29T05:45:45;9.57;;;8.68;;
68168;SDS011;54981;50.206;15.978;2023-05-29T05:48:15;11.05;;;8.98;;
68168;SDS011;54981;50.206;15.978;2023-05-29T05:50:46;10.70;;;9.02;;
68168;SDS011;54981;50.206;15.978;2023-05-29T05:53:16;11.93;;;9.40;;
68168;SDS011;54981;50.206;15.978;2023-05-29T05:55:47;9.77;;;8.82;;
68168;SDS011;54981;50.206;15.978;2023-05-29T05:58:17;10.55;;;8.88;;
68168;SDS011;54981;50.206;15.978;2023-05-29T06:00:47;11.15;;;8.85;;
68168;SDS011;54981;50.206;15.978;2023-05-29T06:03:18;9.70;;;8.80;;
68168;SDS011;54981;50.206;15.978;2023-05-29T06:05:48;10.48;;;8.82;;
68168;SDS011;54981;50.206;15.978;2023-05-29T06:08:20;8.90;;;7.82;;
68168;SDS011;54981;50.206;15.978;2023-05-29T06:10:51;10.30;;;8.18;;
68168;SDS011;54981;50.206;15.978;2023-05-29T06:13:21;8.95;;;8.13;;
68168;SDS011;54981;50.206;15.978;2023-05-29T06:15:51;10.95;;;8.15;;
68168;SDS011;54981;50.206;15.978;2023-05-29T06:18:22;10.32;;;8.32;;
68168;SDS011;54981;50.206;15.978;2023-05-29T06:20:53;9.27;;;8.10;;
68168;SDS011;54981;50.206;15.978;2023-05-29T06:23:23;9.60;;;8.02;;
68168;SDS011;54981;50.206;15.978;2023-05-29T06:25:54;11.63;;;8.25;;
68168;SDS011;54981;50.206;15.978;2023-05-29T06:28:24;8.60;;;7.78;;
68168;SDS011;54981;50.206;15.978;2023-05-29T06:30:54;8.50;;;7.63;;
68168;SDS011;54981;50.206;15.978;2023-05-29T06:33:25;10.88;;;7.95;;
68168;SDS011;54981;50.206;15.978;2023-05-29T06:35:55;9.30;;;8.20;;
68168;SDS011;54981;50.206;15.978;2023-05-29T06:38:25;11.98;;;8.75;;
68168;SDS011;54981;50.206;15.978;2023-05-29T06:40:56;9.95;;;7.97;;
68168;SDS011;54981;50.206;15.978;2023-05-29T06:43:27;10.75;;;8.45;;
68168;SDS011;54981;50.206;15.978;2023-05-29T06:45:58;9.52;;;8.52;;
68168;SDS011;54981;50.206;15.978;2023-05-29T06:48:28;10.05;;;8.73;;
68168;SDS011;54981;50.206;15.978;2023-05-29T06:51:03;9.65;;;7.78;;
68168;SDS011;54981;50.206;15.978;2023-05-29T06:53:38;8.77;;;7.88;;
68168;SDS011;54981;50.206;15.978;2023-05-29T06:56:09;9.40;;;8.15;;
68168;SDS011;54981;50.206;15.978;2023-05-29T06:58:40;10.80;;;8.43;;
68168;SDS011;54981;50.206;15.978;2023-05-29T07:01:10;11.57;;;7.43;;
68168;SDS011;54981;50.206;15.978;2023-05-29T07:03:41;10.55;;;7.15;;
68168;SDS011;54981;50.206;15.978;2023-05-29T07:06:11;7.55;;;6.03;;
68168;SDS011;54981;50.206;15.978;2023-05-29T07:08:42;9.30;;;6.88;;
68168;SDS011;54981;50.206;15.978;2023-05-29T07:11:12;9.07;;;6.38;;
68168;SDS011;54981;50.206;15.978;2023-05-29T07:13:42;8.20;;;6.03;;
68168;SDS011;54981;50.206;15.978;2023-05-29T07:16:13;8.75;;;6.28;;
68168;SDS011;54981;50.206;15.978;2023-05-29T07:18:43;8.48;;;5.93;;
68168;SDS011;54981;50.206;15.978;2023-05-29T07:21:14;8.27;;;5.60;;
68168;SDS011;54981;50.206;15.978;2023-05-29T07:23:44;11.27;;;4.85;;
68168;SDS011;54981;50.206;15.978;2023-05-29T07:26:15;7.38;;;5.35;;
68168;SDS011;54981;50.206;15.978;2023-05-29T07:28:46;6.28;;;4.60;;
68168;SDS011;54981;50.206;15.978;2023-05-29T07:31:16;7.95;;;4.68;;
68168;SDS011;54981;50.206;15.978;2023-05-29T07:33:47;10.98;;;4.82;;
68168;SDS011;54981;50.206;15.978;2023-05-29T07:36:17;6.90;;;4.43;;
68168;SDS011;54981;50.206;15.978;2023-05-29T07:38:48;9.40;;;5.13;;
68168;SDS011;54981;50.206;15.978;2023-05-29T07:41:18;6.43;;;4.00;;
68168;SDS011;54981;50.206;15.978;2023-05-29T07:43:49;7.93;;;5.32;;
68168;SDS011;54981;50.206;15.978;2023-05-29T07:46:22;8.70;;;5.13;;
68168;SDS011;54981;50.206;15.978;2023-05-29T07:48:52;7.53;;;4.75;;
68168;SDS011;54981;50.206;15.978;2023-05-29T07:51:22;6.80;;;4.65;;
68168;SDS011;54981;50.206;15.978;2023-05-29T07:53:54;9.45;;;4.80;;
68168;SDS011;54981;50.206;15.978;2023-05-29T07:56:24;8.43;;;4.65;;
68168;SDS011;54981;50.206;15.978;2023-05-29T07:58:55;8.68;;;5.00;;
68168;SDS011;54981;50.206;15.978;2023-05-29T08:01:25;7.95;;;4.65;;
68168;SDS011;54981;50.206;15.978;2023-05-29T08:03:57;6.90;;;4.57;;
68168;SDS011;54981;50.206;15.978;2023-05-29T08:06:27;7.65;;;4.68;;
68168;SDS011;54981;50.206;15.978;2023-05-29T08:08:58;9.00;;;4.88;;
68168;SDS011;54981;50.206;15.978;2023-05-29T08:11:31;7.45;;;4.43;;
68168;SDS011;54981;50.206;15.978;2023-05-29T08:14:02;9.45;;;4.85;;
68168;SDS011;54981;50.206;15.978;2023-05-29T08:16:33;8.55;;;4.45;;
68168;SDS011;54981;50.206;15.978;2023-05-29T08:19:03;7.13;;;5.03;;
68168;SDS011;54981;50.206;15.978;2023-05-29T08:21:34;8.15;;;4.60;;
68168;SDS011;54981;50.206;15.978;2023-05-29T08:24:04;7.65;;;3.97;;
68168;SDS011;54981;50.206;15.978;2023-05-29T08:26:35;7.05;;;4.60;;
68168;SDS011;54981;50.206;15.978;2023-05-29T08:29:06;8.27;;;5.15;;
68168;SDS011;54981;50.206;15.978;2023-05-29T08:31:36;5.47;;;3.83;;
68168;SDS011;54981;50.206;15.978;2023-05-29T08:34:07;7.10;;;4.75;;
68168;SDS011;54981;50.206;15.978;2023-05-29T08:44:53;9.68;;;4.95;;
68168;SDS011;54981;50.206;15.978;2023-05-29T08:47:28;10.23;;;4.80;;
68168;SDS011;54981;50.206;15.978;2023-05-29T08:50:09;6.35;;;4.60;;
68168;SDS011;54981;50.206;15.978;2023-05-29T08:52:40;7.25;;;4.40;;
68168;SDS011;54981;50.206;15.978;2023-05-29T08:55:11;7.80;;;5.25;;
68168;SDS011;54981;50.206;15.978;2023-05-29T09:00:18;6.32;;;5.00;;
68168;SDS011;54981;50.206;15.978;2023-05-29T09:02:55;8.38;;;5.10;;
68168;SDS011;54981;50.206;15.978;2023-05-29T09:05:28;8.48;;;4.72;;
68168;SDS011;54981;50.206;15.978;2023-05-29T09:08:11;7.45;;;3.92;;
68168;SDS011;54981;50.206;15.978;2023-05-29T09:10:45;5.13;;;4.38;;
68168;SDS011;54981;50.206;15.978;2023-05-29T09:13:15;7.15;;;4.68;;
68168;SDS011;54981;50.206;15.978;2023-05-29T09:15:46;6.25;;;4.28;;
68168;SDS011;54981;50.206;15.978;2023-05-29T09:18:17;7.57;;;4.65;;
68168;SDS011;54981;50.206;15.978;2023-05-29T09:20:47;7.15;;;4.05;;
68168;SDS011;54981;50.206;15.978;2023-05-29T09:23:18;7.22;;;4.00;;
68168;SDS011;54981;50.206;15.978;2023-05-29T09:25:51;7.80;;;4.78;;
68168;SDS011;54981;50.206;15.978;2023-05-29T09:28:23;8.35;;;4.78;;
68168;SDS011;54981;50.206;15.978;2023-05-29T09:30:55;8.25;;;4.93;;
68168;SDS011;54981;50.206;15.978;2023-05-29T09:33:26;4.95;;;4.47;;
68168;SDS011;54981;50.206;15.978;2023-05-29T09:35:57;6.43;;;4.30;;
68168;SDS011;54981;50.206;15.978;2023-05-29T09:38:29;6.22;;;4.35;;
68168;SDS011;54981;50.206;15.978;2023-05-29T09:41:03;4.35;;;3.92;;
68168;SDS011;54981;50.206;15.978;2023-05-29T09:43:34;6.90;;;4.13;;
68168;SDS011;54981;50.206;15.978;2023-05-29T09:46:08;5.38;;;4.28;;
68168;SDS011;54981;50.206;15.978;2023-05-29T09:48:48;8.98;;;4.35;;
68168;SDS011;54981;50.206;15.978;2023-05-29T09:51:22;7.82;;;4.00;;
68168;SDS011;54981;50.206;15.978;2023-05-29T09:56:23;8.85;;;4.28;;
68168;SDS011;54981;50.206;15.978;2023-05-29T09:59:01;5.70;;;3.78;;
68168;SDS011;54981;50.206;15.978;2023-05-29T10:01:32;10.63;;;4.68;;
68168;SDS011;54981;50.206;15.978;2023-05-29T10:04:08;8.73;;;4.13;;
68168;SDS011;54981;50.206;15.978;2023-05-29T10:06:46;6.75;;;4.32;;
68168;SDS011;54981;50.206;15.978;2023-05-29T10:09:19;7.20;;;4.35;;
68168;SDS011;54981;50.206;15.978;2023-05-29T10:11:51;5.35;;;3.83;;
68168;SDS011;54981;50.206;15.978;2023-05-29T10:14:25;7.90;;;4.10;;
68168;SDS011;54981;50.206;15.978;2023-05-29T10:17:01;5.25;;;3.83;;
68168;SDS011;54981;50.206;15.978;2023-05-29T10:19:39;7.80;;;3.90;;
68168;SDS011;54981;50.206;15.978;2023-05-29T10:22:13;7.13;;;3.80;;
68168;SDS011;54981;50.206;15.978;2023-05-29T10:24:48;5.70;;;4.68;;
68168;SDS011;54981;50.206;15.978;2023-05-29T10:27:21;6.15;;;4.72;;
68168;SDS011;54981;50.206;15.978;2023-05-29T10:30:36;6.50;;;4.53;;
68168;SDS011;54981;50.206;15.978;2023-05-29T10:36:12;5.55;;;3.78;;
68168;SDS011;54981;50.206;15.978;2023-05-29T10:38:44;4.90;;;3.85;;
68168;SDS011;54981;50.206;15.978;2023-05-29T10:49:23;8.60;;;4.82;;
68168;SDS011;54981;50.206;15.978;2023-05-29T10:51:53;7.15;;;4.68;;
68168;SDS011;54981;50.206;15.978;2023-05-29T10:54:24;15.07;;;4.53;;
68168;SDS011;54981;50.206;15.978;2023-05-29T10:57:00;7.03;;;4.10;;
68168;SDS011;54981;50.206;15.978;2023-05-29T10:59:36;8.48;;;4.10;;
68168;SDS011;54981;50.206;15.978;2023-05-29T11:02:06;8.85;;;5.05;;
68168;SDS011;54981;50.206;15.978;2023-05-29T11:04:39;11.82;;;4.15;;
68168;SDS011;54981;50.206;15.978;2023-05-29T11:07:31;8.70;;;4.30;;
68168;SDS011;54981;50.206;15.978;2023-05-29T11:10:12;11.23;;;4.13;;
68168;SDS011;54981;50.206;15.978;2023-05-29T11:12:56;6.20;;;4.07;;
68168;SDS011;54981;50.206;15.978;2023-05-29T11:15:28;7.47;;;4.88;;
68168;SDS011;54981;50.206;15.978;2023-05-29T11:18:07;6.60;;;4.00;;
68168;SDS011;54981;50.206;15.978;2023-05-29T11:20:43;5.32;;;4.00;;
68168;SDS011;54981;50.206;15.978;2023-05-29T11:23:19;8.73;;;4.43;;
68168;SDS011;54981;50.206;15.978;2023-05-29T11:25:55;7.47;;;4.47;;
68168;SDS011;54981;50.206;15.978;2023-05-29T11:28:27;5.28;;;3.72;;
68168;SDS011;54981;50.206;15.978;2023-05-29T11:30:57;9.30;;;3.78;;
68168;SDS011;54981;50.206;15.978;2023-05-29T11:33:31;5.32;;;3.88;;
68168;SDS011;54981;50.206;15.978;2023-05-29T11:36:03;6.70;;;4.00;;
68168;SDS011;54981;50.206;15.978;2023-05-29T11:38:33;5.75;;;4.00;;
68168;SDS011;54981;50.206;15.978;2023-05-29T11:41:05;6.38;;;3.95;;
68168;SDS011;54981;50.206;15.978;2023-05-29T11:43:35;8.57;;;4.43;;
68168;SDS011;54981;50.206;15.978;2023-05-29T11:46:19;6.43;;;3.95;;
68168;SDS011;54981;50.206;15.978;2023-05-29T11:48:50;6.60;;;3.58;;
68168;SDS011;54981;50.206;15.978;2023-05-29T11:51:21;8.18;;;3.72;;
68168;SDS011;54981;50.206;15.978;2023-05-29T11:53:51;5.90;;;4.05;;
68168;SDS011;54981;50.206;15.978;2023-05-29T11:56:31;9.23;;;4.10;;
68168;SDS011;54981;50.206;15.978;2023-05-29T12:01:35;6.82;;;4.30;;
68168;SDS011;54981;50.206;15.978;2023-05-29T12:04:15;4.35;;;3.75;;
68168;SDS011;54981;50.206;15.978;2023-05-29T12:06:46;8.93;;;4.10;;
68168;SDS011;54981;50.206;15.978;2023-05-29T12:09:26;5.20;;;3.58;;
68168;SDS011;54981;50.206;15.978;2023-05-29T12:12:04;8.07;;;3.67;;
68168;SDS011;54981;50.206;15.978;2023-05-29T12:14:35;7.47;;;4.22;;
68168;SDS011;54981;50.206;15.978;2023-05-29T12:17:06;7.13;;;4.05;;
68168;SDS011;54981;50.206;15.978;2023-05-29T12:19:40;6.13;;;3.90;;
68168;SDS011;54981;50.206;15.978;2023-05-29T12:22:17;6.72;;;3.90;;
68168;SDS011;54981;50.206;15.978;2023-05-29T12:25:19;9.93;;;4.07;;
68168;SDS011;54981;50.206;15.978;2023-05-29T12:27:50;6.78;;;4.30;;
68168;SDS011;54981;50.206;15.978;2023-05-29T12:30:21;5.53;;;3.97;;
68168;SDS011;54981;50.206;15.978;2023-05-29T12:32:52;5.35;;;3.92;;
68168;SDS011;54981;50.206;15.978;2023-05-29T12:35:23;8.65;;;4.32;;
68168;SDS011;54981;50.206;15.978;2023-05-29T12:37:58;6.63;;;4.15;;
68168;SDS011;54981;50.206;15.978;2023-05-29T12:40:31;7.50;;;4.10;;
68168;SDS011;54981;50.206;15.978;2023-05-29T12:43:09;7.57;;;3.88;;
68168;SDS011;54981;50.206;15.978;2023-05-29T12:45:39;5.93;;;3.55;;
68168;SDS011;54981;50.206;15.978;2023-05-29T12:48:10;5.72;;;3.90;;
68168;SDS011;54981;50.206;15.978;2023-05-29T12:50:41;8.52;;;4.32;;
68168;SDS011;54981;50.206;15.978;2023-05-29T12:53:12;8.85;;;4.13;;
68168;SDS011;54981;50.206;15.978;2023-05-29T12:55:44;6.18;;;3.50;;
68168;SDS011;54981;50.206;15.978;2023-05-29T12:58:16;5.53;;;3.55;;
68168;SDS011;54981;50.206;15.978;2023-05-29T13:00:46;6.75;;;3.67;;
68168;SDS011;54981;50.206;15.978;2023-05-29T13:03:17;4.32;;;3.67;;
68168;SDS011;54981;50.206;15.978;2023-05-29T13:05:47;6.85;;;4.05;;
68168;SDS011;54981;50.206;15.978;2023-05-29T13:08:18;5.18;;;3.63;;
68168;SDS011;54981;50.206;15.978;2023-05-29T13:10:49;7.60;;;3.85;;
68168;SDS011;54981;50.206;15.978;2023-05-29T13:13:27;6.32;;;4.47;;
68168;SDS011;54981;50.206;15.978;2023-05-29T13:15:59;6.22;;;3.85;;
68168;SDS011;54981;50.206;15.978;2023-05-29T13:18:33;8.48;;;4.07;;
68168;SDS011;54981;50.206;15.978;2023-05-29T13:21:03;4.90;;;3.72;;
68168;SDS011;54981;50.206;15.978;2023-05-29T13:23:34;7.03;;;4.13;;
68168;SDS011;54981;50.206;15.978;2023-05-29T13:26:04;4.72;;;3.30;;
68168;SDS011;54981;50.206;15.978;2023-05-29T13:28:35;6.63;;;3.92;;
68168;SDS011;54981;50.206;15.978;2023-05-29T13:31:05;6.05;;;4.07;;
68168;SDS011;54981;50.206;15.978;2023-05-29T13:33:36;7.93;;;4.22;;
68168;SDS011;54981;50.206;15.978;2023-05-29T13:36:06;6.78;;;3.97;;
68168;SDS011;54981;50.206;15.978;2023-05-29T13:38:37;5.15;;;4.00;;
68168;SDS011;54981;50.206;15.978;2023-05-29T13:41:08;7.13;;;4.60;;
68168;SDS011;54981;50.206;15.978;2023-05-29T13:43:38;6.72;;;4.40;;
68168;SDS011;54981;50.206;15.978;2023-05-29T13:46:08;11.45;;;4.28;;
68168;SDS011;54981;50.206;15.978;2023-05-29T13:48:39;4.32;;;3.60;;
68168;SDS011;54981;50.206;15.978;2023-05-29T13:51:09;8.00;;;4.40;;
68168;SDS011;54981;50.206;15.978;2023-05-29T13:53:40;6.43;;;3.85;;
68168;SDS011;54981;50.206;15.978;2023-05-29T13:56:10;5.80;;;4.03;;
68168;SDS011;54981;50.206;15.978;2023-05-29T13:58:40;5.35;;;3.53;;
68168;SDS011;54981;50.206;15.978;2023-05-29T14:01:11;6.20;;;3.75;;
68168;SDS011;54981;50.206;15.978;2023-05-29T14:03:41;7.50;;;3.85;;
68168;SDS011;54981;50.206;15.978;2023-05-29T14:06:12;6.20;;;3.65;;
68168;SDS011;54981;50.206;15.978;2023-05-29T14:08:42;4.85;;;3.78;;
68168;SDS011;54981;50.206;15.978;2023-05-29T14:11:13;6.72;;;4.75;;
68168;SDS011;54981;50.206;15.978;2023-05-29T14:13:43;7.30;;;4.05;;
68168;SDS011;54981;50.206;15.978;2023-05-29T14:16:15;5.80;;;4.78;;
68168;SDS011;54981;50.206;15.978;2023-05-29T14:18:45;5.93;;;4.47;;
68168;SDS011;54981;50.206;15.978;2023-05-29T14:21:18;6.40;;;4.50;;
68168;SDS011;54981;50.206;15.978;2023-05-29T14:23:50;7.65;;;4.20;;
68168;SDS011;54981;50.206;15.978;2023-05-29T14:26:21;7.05;;;4.07;;
68168;SDS011;54981;50.206;15.978;2023-05-29T14:28:51;7.70;;;4.50;;
68168;SDS011;54981;50.206;15.978;2023-05-29T14:31:22;6.82;;;3.85;;
68168;SDS011;54981;50.206;15.978;2023-05-29T14:33:52;7.85;;;4.40;;
68168;SDS011;54981;50.206;15.978;2023-05-29T14:36:22;7.80;;;3.60;;
68168;SDS011;54981;50.206;15.978;2023-05-29T14:38:56;5.68;;;4.35;;
68168;SDS011;54981;50.206;15.978;2023-05-29T14:41:26;6.30;;;3.97;;
68168;SDS011;54981;50.206;15.978;2023-05-29T14:43:57;6.70;;;4.20;;
68168;SDS011;54981;50.206;15.978;2023-05-29T14:46:28;8.35;;;4.03;;
68168;SDS011;54981;50.206;15.978;2023-05-29T14:49:01;5.90;;;4.55;;
68168;SDS011;54981;50.206;15.978;2023-05-29T14:51:31;7.10;;;4.75;;
68168;SDS011;54981;50.206;15.978;2023-05-29T14:54:03;7.82;;;4.28;;
68168;SDS011;54981;50.206;15.978;2023-05-29T14:56:33;6.10;;;4.25;;
68168;SDS011;54981;50.206;15.978;2023-05-29T14:59:04;6.20;;;4.30;;
68168;SDS011;54981;50.206;15.978;2023-05-29T15:01:34;6.35;;;3.95;;
68168;SDS011;54981;50.206;15.978;2023-05-29T15:04:04;5.18;;;4.07;;
68168;SDS011;54981;50.206;15.978;2023-05-29T15:06:35;11.68;;;4.72;;
68168;SDS011;54981;50.206;15.978;2023-05-29T15:09:06;5.75;;;4.50;;
68168;SDS011;54981;50.206;15.978;2023-05-29T15:11:36;6.88;;;4.63;;
68168;SDS011;54981;50.206;15.978;2023-05-29T15:14:09;8.60;;;4.20;;
68168;SDS011;54981;50.206;15.978;2023-05-29T15:16:39;6.65;;;4.68;;
68168;SDS011;54981;50.206;15.978;2023-05-29T15:19:10;10.63;;;4.93;;
68168;SDS011;54981;50.206;15.978;2023-05-29T15:21:40;8.02;;;4.80;;